Time;durP1;ratioP1;P1;durP2;ratioP2;P2;SDS_P1;SDS_P2;PMS_P1;PMS_P2;Temp;Humidity;BMP_temperature;BMP_pressure;BME280_temperature;BME280_humidity;BME280_pressure;Samples;Min_cycle;Max_cycle;Signal;HPM_P1;HPM_P2
2021/07/11 00:02:43;;;;;;;7.68;5.78;;;16.10;99.90;;;15.10;100.00;97533.28;5051510;28;20385;-65
2021/07/11 00:05:31;;;;;;;9.00;4.93;;;16.00;99.90;;;15.21;100.00;97538.69;5046423;28;20194;-65
2021/07/11 00:08:18;;;;;;;10.40;5.20;;;16.00;99.90;;;15.27;100.00;97543.50;5059413;28;20040;-65
2021/07/11 00:11:05;;;;;;;8.32;4.72;;;16.00;99.90;;;15.16;100.00;97545.94;5051991;28;20029;-65
2021/07/11 00:13:52;;;;;;;14.18;5.00;;;15.90;99.90;;;15.11;100.00;97557.63;5051382;28;20456;-64
2021/07/11 00:16:40;;;;;;;9.95;5.22;;;16.00;99.90;;;15.07;100.00;97551.75;5051426;28;20044;-65
2021/07/11 00:19:27;;;;;;;7.13;5.15;;;16.00;99.90;;;15.24;100.00;97548.94;5052533;28;20171;-65
2021/07/11 00:22:15;;;;;;;7.35;4.65;;;16.10;99.90;;;15.24;100.00;97546.31;5047986;28;20041;-65
2021/07/11 00:25:04;;;;;;;6.50;4.38;;;16.10;99.90;;;15.37;100.00;97540.31;5050789;28;20037;-65
2021/07/11 00:27:53;;;;;;;13.80;5.25;;;16.00;99.90;;;15.27;100.00;97537.44;5050517;28;20134;-65
2021/07/11 00:30:40;;;;;;;6.47;4.40;;;16.00;99.90;;;15.15;100.00;97540.81;5045171;28;20122;-64
2021/07/11 00:33:29;;;;;;;5.97;4.65;;;16.00;99.90;;;15.09;100.00;97547.25;5053096;28;20088;-65
2021/07/11 00:36:17;;;;;;;8.48;5.18;;;16.00;99.90;;;15.09;100.00;97549.88;5051017;28;20416;-65
2021/07/11 00:39:04;;;;;;;7.38;4.35;;;16.00;99.90;;;15.16;100.00;97539.88;5051104;28;20067;-64
2021/07/11 00:41:52;;;;;;;6.65;4.85;;;15.90;99.90;;;15.08;100.00;97542.16;5037266;28;20048;-65
2021/07/11 00:44:40;;;;;;;6.82;4.20;;;15.90;99.90;;;15.09;100.00;97530.75;5047332;28;20029;-65
2021/07/11 00:47:27;;;;;;;9.55;4.40;;;15.80;99.90;;;15.06;100.00;97524.75;5046955;28;20519;-65
2021/07/11 00:50:18;;;;;;;11.57;6.10;;;15.80;99.90;;;14.87;100.00;97526.84;5037158;28;20045;-65
2021/07/11 00:53:09;;;;;;;10.25;5.32;;;15.80;99.90;;;14.87;100.00;97531.19;5035860;28;20044;-65
2021/07/11 00:55:57;;;;;;;10.73;4.72;;;15.80;99.90;;;14.82;100.00;97532.34;5038085;28;20045;-65
2021/07/11 00:58:45;;;;;;;8.65;5.63;;;15.70;99.90;;;14.81;100.00;97538.50;5027782;28;20124;-64
2021/07/11 01:02:21;;;;;;;9.10;6.10;;;15.80;99.90;;;14.89;100.00;97537.19;5026577;28;20513;-65
2021/07/11 01:05:11;;;;;;;9.68;5.65;;;15.70;99.90;;;14.92;100.00;97534.41;5040808;28;20567;-64
2021/07/11 01:08:10;;;;;;;9.75;7.18;;;15.70;99.90;;;14.83;100.00;97533.19;5030589;28;20114;-65
2021/07/11 01:11:07;;;;;;;7.82;4.95;;;15.70;99.90;;;14.94;100.00;97533.38;5045033;28;20509;-65
2021/07/11 01:13:57;;;;;;;8.48;4.78;;;15.60;99.90;;;14.81;100.00;97535.88;5045496;28;20120;-64
2021/07/11 01:16:48;;;;;;;7.45;4.65;;;15.50;99.90;;;14.74;100.00;97538.97;5051615;28;20536;-65
2021/07/11 01:20:09;;;;;;;9.23;4.57;;;15.50;99.90;;;14.73;100.00;97524.19;5031711;28;20037;-65
2021/07/11 01:22:57;;;;;;;8.48;4.30;;;15.50;99.90;;;14.76;100.00;97543.16;5040175;28;20048;-65
2021/07/11 01:25:48;;;;;;;11.25;5.82;;;15.50;99.90;;;14.69;100.00;97540.97;5032243;28;20068;-65
2021/07/11 01:28:36;;;;;;;13.02;5.28;;;15.50;99.90;;;14.66;100.00;97535.94;5036202;28;20420;-65
2021/07/11 01:31:25;;;;;;;8.85;4.47;;;15.50;99.90;;;14.67;100.00;97541.09;5038060;28;20044;-65
2021/07/11 01:34:14;;;;;;;9.75;5.25;;;15.40;99.90;;;14.57;100.00;97529.50;5047885;28;20134;-65
2021/07/11 01:37:02;;;;;;;5.88;4.50;;;15.40;99.90;;;14.59;100.00;97531.09;5048528;28;20524;-65
2021/07/11 01:39:49;;;;;;;10.77;6.18;;;15.40;99.90;;;14.59;100.00;97532.88;5049265;28;20055;-65
2021/07/11 01:42:38;;;;;;;9.75;6.50;;;15.40;99.90;;;14.55;100.00;97537.44;5050220;28;20131;-64
2021/07/11 01:45:26;;;;;;;9.02;5.57;;;15.40;99.90;;;14.56;100.00;97543.50;5047743;28;20044;-65
2021/07/11 01:48:14;;;;;;;13.55;6.75;;;15.30;99.90;;;14.49;100.00;97544.78;5033095;28;20156;-64
2021/07/11 01:51:02;;;;;;;10.35;7.40;;;15.30;99.90;;;14.48;100.00;97540.47;5042857;28;20048;-65
2021/07/11 01:53:52;;;;;;;10.85;6.55;;;15.30;99.90;;;14.47;100.00;97537.00;5048756;28;20037;-64
2021/07/11 01:56:40;;;;;;;7.93;5.60;;;15.30;99.90;;;14.53;100.00;97541.88;5044034;28;20103;-65
2021/07/11 01:59:27;;;;;;;9.43;6.47;;;15.30;99.90;;;14.38;100.00;97535.78;5050281;28;20155;-65
2021/07/11 02:02:15;;;;;;;20.52;6.32;;;15.30;99.90;;;14.34;100.00;97547.31;5045277;28;20452;-65
2021/07/11 02:05:07;;;;;;;10.00;6.20;;;15.30;99.90;;;14.34;100.00;97543.88;5049309;28;20267;-64
2021/07/11 02:07:54;;;;;;;8.40;5.65;;;15.20;99.90;;;14.24;100.00;97551.41;5059911;28;20128;-65
2021/07/11 02:10:46;;;;;;;6.43;5.32;;;15.10;99.90;;;14.28;100.00;97546.84;5048013;28;20571;-65
2021/07/11 02:13:56;;;;;;;9.63;6.18;;;15.10;99.90;;;14.16;100.00;97546.66;5048872;28;20033;-65
2021/07/11 02:17:00;;;;;;;9.52;6.63;;;15.10;99.90;;;14.16;100.00;97553.63;5040093;28;20519;-65
2021/07/11 02:19:48;;;;;;;12.68;8.45;;;15.00;99.90;;;14.07;100.00;97544.56;5031375;28;20403;-65
2021/07/11 02:22:45;;;;;;;10.82;7.32;;;14.90;99.90;;;14.06;100.00;97562.91;5047177;28;20520;-65
2021/07/11 02:25:32;;;;;;;15.10;10.68;;;14.90;99.90;;;13.97;100.00;97557.28;5047620;28;20145;-65
2021/07/11 02:28:21;;;;;;;9.70;7.95;;;14.90;99.90;;;14.03;100.00;97561.31;5048966;28;20509;-65
2021/07/11 02:31:12;;;;;;;17.17;10.75;;;14.80;99.90;;;14.03;100.00;97550.88;5033668;28;20457;-65
2021/07/11 02:34:00;;;;;;;23.33;14.85;;;14.80;99.90;;;13.96;100.00;97546.94;5039538;28;20389;-65
2021/07/11 02:36:51;;;;;;;16.95;13.02;;;14.80;99.90;;;13.99;100.00;97551.97;5031906;28;20179;-65
2021/07/11 02:39:45;;;;;;;20.75;14.95;;;14.80;99.90;;;14.00;100.00;97558.88;5048402;28;20074;-65
2021/07/11 02:42:32;;;;;;;22.33;13.95;;;14.80;99.90;;;13.97;100.00;97559.88;5043556;28;20037;-64
2021/07/11 02:45:21;;;;;;;19.98;13.00;;;14.80;99.90;;;13.97;100.00;97557.28;5045797;28;20037;-65
2021/07/11 02:48:10;;;;;;;17.73;13.25;;;14.90;99.90;;;14.02;100.00;97564.84;5040895;28;20041;-65
2021/07/11 02:50:58;;;;;;;18.10;13.65;;;14.90;99.90;;;13.98;100.00;97568.56;5042282;28;20047;-65
2021/07/11 02:53:47;;;;;;;17.75;11.82;;;15.00;99.90;;;14.17;100.00;97570.97;5044915;28;20045;-65
2021/07/11 02:56:38;;;;;;;13.23;10.80;;;15.00;99.90;;;14.05;100.00;97572.53;5030420;28;20057;-65
2021/07/11 02:59:26;;;;;;;10.98;9.13;;;15.00;99.90;;;13.96;100.00;97570.44;5047683;28;20072;-65
2021/07/11 03:02:14;;;;;;;13.05;9.75;;;15.00;99.90;;;13.93;100.00;97573.19;5028588;28;20163;-65
2021/07/11 03:05:02;;;;;;;13.98;8.25;;;15.00;99.90;;;14.02;100.00;97575.28;5034334;28;20067;-65
2021/07/11 03:07:51;;;;;;;10.85;7.15;;;15.00;99.90;;;14.02;100.00;97570.91;5047934;28;20060;-65
2021/07/11 03:10:40;;;;;;;12.95;7.93;;;15.00;99.90;;;14.05;100.00;97569.03;5044557;28;20524;-65
2021/07/11 03:13:29;;;;;;;18.75;10.40;;;14.90;99.90;;;14.09;100.00;97573.16;5029594;28;20103;-65
2021/07/11 03:16:19;;;;;;;13.80;10.77;;;15.00;99.90;;;13.89;100.00;97575.16;5050770;28;20042;-65
2021/07/11 03:19:08;;;;;;;9.05;6.85;;;15.00;99.90;;;14.11;100.00;97577.38;5027996;28;20167;-65
2021/07/11 03:21:57;;;;;;;12.98;8.32;;;15.00;99.90;;;14.00;100.00;97571.91;5033418;28;20040;-65
2021/07/11 03:24:44;;;;;;;17.35;9.50;;;15.00;99.90;;;13.92;100.00;97569.75;5049826;28;20069;-65
2021/07/11 03:27:32;;;;;;;14.75;9.10;;;15.00;99.90;;;13.94;100.00;97578.34;5019601;28;20568;-65
2021/07/11 03:30:21;;;;;;;12.27;8.07;;;14.90;99.90;;;13.83;100.00;97585.09;5031014;28;20521;-65
2021/07/11 03:33:10;;;;;;;11.45;7.47;;;14.90;99.90;;;13.84;100.00;97582.38;5044349;28;20041;-65
2021/07/11 03:36:02;;;;;;;9.80;8.25;;;14.90;99.90;;;13.85;100.00;97584.06;5044987;28;20413;-65
2021/07/11 03:38:57;;;;;;;9.70;7.97;;;14.90;99.90;;;13.81;100.00;97590.38;5019045;28;20053;-63
2021/07/11 03:41:46;;;;;;;10.75;8.23;;;14.80;99.90;;;13.81;100.00;97593.81;5026622;28;20107;-64
2021/07/11 03:44:35;;;;;;;9.90;6.95;;;14.90;99.90;;;14.02;100.00;97585.72;5040261;28;20091;-63
2021/07/11 03:47:27;;;;;;;8.60;4.40;;;15.00;99.90;;;14.11;100.00;97592.19;5035386;28;20040;-63
2021/07/11 03:50:16;;;;;;;9.32;4.75;;;15.00;99.90;;;14.11;100.00;97587.81;5042757;28;20075;-64
2021/07/11 03:53:08;;;;;;;5.60;3.97;;;15.00;99.90;;;14.18;100.00;97594.34;5030048;28;20505;-63
2021/07/11 03:55:58;;;;;;;7.43;5.20;;;15.10;99.90;;;14.12;100.00;97591.28;5031995;28;20094;-64
2021/07/11 03:58:46;;;;;;;9.18;4.95;;;15.10;99.90;;;14.21;100.00;97609.88;5026244;28;20049;-64
2021/07/11 04:01:36;;;;;;;9.65;6.40;;;15.10;99.90;;;14.24;100.00;97606.25;5031121;28;20533;-64
2021/07/11 04:04:26;;;;;;;17.55;8.38;;;15.10;99.90;;;14.17;100.00;97605.75;5048177;28;20041;-63
2021/07/11 04:07:19;;;;;;;11.60;8.38;;;15.10;99.90;;;14.21;100.00;97614.25;5042866;28;20451;-64
2021/07/11 04:10:08;;;;;;;13.00;8.13;;;15.10;99.90;;;14.22;100.00;97619.38;5040589;28;20452;-64
2021/07/11 04:12:59;;;;;;;16.30;10.00;;;15.10;99.90;;;14.30;100.00;97621.56;5027445;28;20508;-63
2021/07/11 04:15:58;;;;;;;15.70;10.32;;;15.10;99.90;;;14.27;100.00;97616.50;5032025;28;20517;-64
2021/07/11 04:18:48;;;;;;;16.65;12.20;;;15.10;99.90;;;14.23;100.00;97623.69;5034766;28;20531;-63
2021/07/11 04:21:37;;;;;;;19.35;13.13;;;15.20;99.90;;;14.25;100.00;97620.97;5029348;28;20188;-63
2021/07/11 04:24:24;;;;;;;18.95;13.35;;;15.20;99.90;;;14.32;100.00;97624.06;5029984;28;20907;-64
2021/07/11 04:27:12;;;;;;;20.40;14.98;;;15.20;99.90;;;14.17;100.00;97624.03;5041924;28;20033;-63
2021/07/11 04:30:00;;;;;;;18.58;12.68;;;15.20;99.90;;;14.29;100.00;97619.03;5030686;28;20048;-64
2021/07/11 04:32:48;;;;;;;21.60;14.13;;;15.20;99.90;;;14.22;100.00;97616.75;5048133;28;20045;-64
2021/07/11 04:35:36;;;;;;;12.05;10.35;;;15.20;99.90;;;14.32;100.00;97621.47;5048004;28;20626;-64
2021/07/11 04:38:24;;;;;;;16.20;10.52;;;15.10;99.90;;;14.24;100.00;97614.06;5044753;28;20417;-64
2021/07/11 04:41:11;;;;;;;17.25;11.82;;;15.10;99.90;;;14.21;100.00;97617.69;5050155;28;20138;-64
2021/07/11 04:44:04;;;;;;;13.68;10.30;;;15.20;99.90;;;14.30;100.00;97624.19;5045608;28;20071;-63
2021/07/11 04:46:51;;;;;;;15.85;10.68;;;15.20;99.90;;;14.23;100.00;97614.97;5049773;28;20121;-64
2021/07/11 04:49:40;;;;;;;15.18;10.85;;;15.20;99.90;;;14.41;100.00;97606.13;5047832;28;20041;-64
2021/07/11 04:52:28;;;;;;;21.60;11.48;;;15.30;99.90;;;14.35;100.00;97614.31;5021999;28;20065;-64
2021/07/11 04:55:16;;;;;;;15.90;10.73;;;15.30;99.90;;;14.36;100.00;97613.38;5044635;28;20136;-64
2021/07/11 04:58:03;;;;;;;15.15;11.00;;;15.40;99.90;;;14.27;100.00;97619.09;5048985;28;20116;-63
2021/07/11 05:00:50;;;;;;;15.65;11.20;;;15.40;99.90;;;14.22;100.00;97614.16;5046345;28;20060;-64
2021/07/11 05:03:37;;;;;;;15.27;11.65;;;15.40;99.90;;;14.25;100.00;97622.75;5050686;28;20149;-64
2021/07/11 05:06:25;;;;;;;15.65;10.63;;;15.30;99.90;;;14.21;100.00;97627.31;5051402;28;20033;-64
2021/07/11 05:09:13;;;;;;;14.93;10.48;;;15.30;99.90;;;14.31;100.00;97628.47;5051309;28;20137;-64
2021/07/11 05:12:00;;;;;;;14.80;10.75;;;15.30;99.90;;;14.34;100.00;97624.81;5050410;28;20048;-64
2021/07/11 05:14:48;;;;;;;14.40;10.10;;;15.40;99.90;;;14.36;100.00;97618.59;5045449;28;20037;-64
2021/07/11 05:17:36;;;;;;;15.73;11.32;;;15.40;99.90;;;14.20;100.00;97630.84;5051436;28;20064;-63
2021/07/11 05:20:23;;;;;;;19.60;13.23;;;15.40;99.90;;;14.08;100.00;97621.94;5048040;28;20045;-64
2021/07/11 05:23:10;;;;;;;15.80;11.70;;;15.40;99.90;;;14.17;100.00;97620.56;5048714;28;20122;-64
2021/07/11 05:25:58;;;;;;;16.77;11.50;;;15.40;99.90;;;14.23;100.00;97622.81;5045598;28;20029;-63
2021/07/11 05:28:45;;;;;;;16.92;11.68;;;15.40;99.90;;;14.11;98.81;97636.56;5046677;28;20563;-64
2021/07/11 05:31:32;;;;;;;16.10;12.70;;;15.30;99.90;;;14.14;98.71;97625.94;5048631;28;20048;-64
2021/07/11 05:34:19;;;;;;;17.15;12.32;;;15.30;99.90;;;14.08;98.61;97628.91;5046740;28;20456;-64
2021/07/11 05:37:07;;;;;;;15.43;11.85;;;15.20;99.90;;;13.99;99.09;97632.88;5046741;28;20081;-63
2021/07/11 05:39:54;;;;;;;21.60;14.13;;;15.20;99.90;;;14.11;98.08;97629.56;5050420;28;20512;-64
2021/07/11 05:42:43;;;;;;;18.27;13.85;;;15.20;99.90;;;13.94;98.82;97632.31;5049073;28;20076;-63
2021/07/11 05:45:30;;;;;;;17.77;13.52;;;15.20;99.90;;;13.99;99.17;97632.88;5033449;28;20036;-63
2021/07/11 05:48:18;;;;;;;18.77;11.93;;;15.30;99.90;;;14.29;98.06;97632.09;5046893;28;20034;-64
2021/07/11 05:51:05;;;;;;;18.25;11.88;;;15.30;99.90;;;14.32;97.85;97624.94;5045556;28;20235;-63
2021/07/11 05:53:53;;;;;;;18.67;12.65;;;15.40;99.90;;;14.35;97.93;97636.97;5051150;28;20056;-64
2021/07/11 05:56:40;;;;;;;18.33;12.32;;;15.60;99.90;;;14.48;97.40;97632.69;5039975;28;20087;-64
2021/07/11 05:59:27;;;;;;;13.38;9.38;;;15.70;99.90;;;14.46;97.99;97629.38;5036779;28;20182;-64
2021/07/11 06:02:14;;;;;;;12.60;8.18;;;15.80;99.90;;;14.67;97.89;97637.75;5045697;28;20076;-64
2021/07/11 06:05:02;;;;;;;12.30;7.65;;;15.80;99.90;;;15.00;96.26;97644.53;5047984;28;20053;-63
2021/07/11 06:07:49;;;;;;;7.75;5.97;;;15.80;99.90;;;14.78;95.77;97640.59;5038328;28;20048;-64
2021/07/11 06:10:37;;;;;;;10.10;5.93;;;15.80;99.90;;;14.81;95.39;97642.19;5047196;28;20041;-64
2021/07/11 06:13:24;;;;;;;7.90;5.18;;;15.70;99.90;;;15.22;94.78;97638.88;5046134;28;20098;-64
2021/07/11 06:16:12;;;;;;;10.38;4.75;;;15.80;99.90;;;15.26;94.04;97645.59;5049756;28;20037;-63
2021/07/11 06:19:00;;;;;;;6.82;4.00;;;16.00;99.90;;;15.28;92.35;97648.97;5045800;28;20048;-64
2021/07/11 06:21:49;;;;;;;8.68;5.18;;;16.00;99.90;;;15.25;94.51;97644.75;5045532;28;20068;-63
2021/07/11 06:24:36;;;;;;;7.88;4.72;;;16.10;99.90;;;15.09;93.33;97651.81;5049635;28;20056;-64
2021/07/11 06:27:24;;;;;;;7.68;5.20;;;16.10;99.90;;;14.89;93.51;97654.78;5048044;28;20091;-64
2021/07/11 06:30:16;;;;;;;10.63;5.65;;;16.10;99.90;;;15.02;94.05;97653.13;5049380;28;20041;-64
2021/07/11 06:33:04;;;;;;;8.45;5.78;;;16.20;99.90;;;15.29;93.08;97653.25;5049412;28;20045;-64
2021/07/11 06:35:51;;;;;;;8.50;5.38;;;16.20;99.90;;;15.05;91.94;97666.88;5050468;28;20300;-64
2021/07/11 06:38:39;;;;;;;9.48;5.57;;;16.20;99.90;;;15.20;92.25;97653.81;5048079;28;20509;-64
2021/07/11 06:41:26;;;;;;;8.43;5.75;;;16.20;99.90;;;15.57;90.17;97655.00;5048020;28;20504;-64
2021/07/11 06:44:14;;;;;;;11.65;6.10;;;16.30;99.90;;;15.27;91.09;97655.94;5045896;28;20040;-64
2021/07/11 06:47:03;;;;;;;14.88;7.57;;;16.40;99.90;;;15.18;90.49;97653.06;5049367;28;20045;-64
2021/07/11 06:49:50;;;;;;;12.07;7.93;;;16.60;99.90;;;14.89;92.23;97658.22;5040636;28;20128;-64
2021/07/11 06:52:39;;;;;;;9.50;6.28;;;16.60;99.90;;;15.46;91.10;97663.53;5048094;28;20508;-65
2021/07/11 06:55:26;;;;;;;11.48;7.60;;;16.70;99.90;;;15.08;92.72;97675.47;5048849;28;20045;-64
2021/07/11 06:58:13;;;;;;;14.88;7.07;;;16.70;99.90;;;15.12;93.03;97676.94;5048460;28;20041;-64
2021/07/11 07:01:01;;;;;;;11.88;8.32;;;16.70;99.90;;;14.98;93.49;97683.81;5046796;28;20029;-64
2021/07/11 07:03:49;;;;;;;12.23;8.25;;;16.60;99.90;;;15.21;91.69;97673.78;5032421;28;20053;-64
2021/07/11 07:06:36;;;;;;;12.65;7.97;;;16.50;99.90;;;15.37;92.51;97674.56;5046995;28;20068;-64
2021/07/11 07:09:23;;;;;;;10.60;7.35;;;16.50;99.90;;;15.36;90.86;97672.88;5045591;28;20100;-66
2021/07/11 07:12:11;;;;;;;15.50;7.85;;;16.70;99.90;;;15.20;91.29;97670.34;5047039;28;20037;-65
2021/07/11 07:14:58;;;;;;;9.95;7.15;;;16.70;99.90;;;15.41;89.97;97673.41;5047726;28;20041;-65
2021/07/11 07:17:45;;;;;;;9.30;6.03;;;16.60;99.90;;;15.66;88.66;97675.38;5046265;28;20421;-65
2021/07/11 07:20:33;;;;;;;9.27;6.82;;;16.50;99.90;;;16.01;87.19;97675.00;5045831;28;20114;-65
2021/07/11 07:23:20;;;;;;;11.88;8.60;;;16.70;99.90;;;15.88;88.01;97685.41;5043038;28;20067;-66
2021/07/11 07:26:07;;;;;;;16.75;9.13;;;17.10;99.90;;;15.62;88.94;97689.63;5040195;28;20063;-65
2021/07/11 07:28:55;;;;;;;14.55;8.60;;;17.20;99.90;;;15.94;87.46;97691.19;5045424;28;20038;-65
2021/07/11 07:31:44;;;;;;;12.23;7.60;;;17.20;99.90;;;15.91;87.73;97689.59;5045677;28;20112;-66
2021/07/11 07:34:31;;;;;;;12.48;7.35;;;17.40;99.90;;;16.07;86.62;97679.84;5043868;28;20049;-65
2021/07/11 07:37:19;;;;;;;9.35;6.75;;;17.40;99.90;;;16.56;83.08;97686.34;5046079;28;20044;-66
2021/07/11 07:40:07;;;;;;;10.45;6.43;;;17.60;99.90;;;16.91;82.07;97677.97;5033383;28;20053;-66
2021/07/11 07:42:54;;;;;;;10.27;7.00;;;17.60;99.90;;;17.02;83.31;97682.50;5044357;28;20068;-65
2021/07/11 07:45:43;;;;;;;8.65;6.40;;;17.80;99.90;;;17.21;79.94;97676.84;5044596;28;20092;-65
2021/07/11 07:48:31;;;;;;;10.65;7.80;;;17.70;99.90;;;15.93;83.90;97705.22;5045308;28;20497;-66
2021/07/11 07:51:18;;;;;;;7.80;6.40;;;17.90;99.90;;;16.41;82.99;97697.81;5047137;28;20393;-65
2021/07/11 07:54:06;;;;;;;10.07;7.20;;;18.00;99.90;;;16.16;84.14;97694.13;5048804;28;20228;-65
2021/07/11 07:56:53;;;;;;;11.25;5.75;;;18.10;99.90;;;16.46;81.84;97699.19;5043287;28;20076;-66
2021/07/11 07:59:41;;;;;;;8.68;5.38;;;18.00;99.90;;;15.98;81.06;97709.22;5046695;28;20175;-65
2021/07/11 08:02:31;;;;;;;5.47;3.83;;;;;;;16.61;78.66;97692.13;5046524;28;20100;-65
2021/07/11 08:05:19;;;;;;;6.60;3.90;;;17.90;99.90;;;16.20;78.28;97697.41;5048034;28;20573;-65
2021/07/11 08:08:08;;;;;;;4.63;3.30;;;17.90;99.90;;;16.49;77.12;97692.94;5048175;28;20041;-65
2021/07/11 08:10:56;;;;;;;4.80;3.20;;;17.80;99.90;;;16.22;76.53;97696.38;5034793;28;20048;-65
2021/07/11 08:13:44;;;;;;;7.93;3.75;;;17.80;99.90;;;16.49;77.44;97704.25;5027203;28;20061;-65
2021/07/11 08:16:31;;;;;;;5.65;2.50;;;18.00;99.90;;;16.91;73.64;97706.81;5032299;28;20064;-65
2021/07/11 08:19:19;;;;;;;5.00;2.63;;;18.10;99.90;;;16.96;75.06;97703.88;5047552;28;20509;-65
2021/07/11 08:22:06;;;;;;;3.53;2.67;;;18.30;99.90;;;16.58;74.94;97717.66;5048253;28;20126;-66
2021/07/11 08:24:53;;;;;;;4.70;2.60;;;18.50;99.90;;;17.01;73.88;97705.25;5049573;28;20424;-65
2021/07/11 08:27:43;;;;;;;4.90;3.38;;;18.50;99.90;;;16.99;76.38;97712.41;5035510;28;20124;-65
2021/07/11 08:30:30;;;;;;;4.32;2.63;;;18.50;99.90;;;17.74;75.76;97706.41;5051309;28;20068;-66
2021/07/11 08:33:17;;;;;;;5.30;2.50;;;18.60;99.90;;;18.04;73.00;97703.47;5045934;28;20037;-65
2021/07/11 08:36:05;;;;;;;7.97;2.63;;;19.00;99.90;;;17.84;71.00;97707.50;5048270;28;20412;-63
2021/07/11 08:38:52;;;;;;;4.47;2.55;;;19.60;99.90;;;18.60;69.21;97700.31;5042969;28;20486;-65
2021/07/11 08:41:39;;;;;;;5.88;2.40;;;20.00;99.90;;;19.38;71.03;97702.38;5048901;28;20045;-63
2021/07/11 08:44:27;;;;;;;4.40;2.35;;;20.30;99.90;;;18.14;69.50;97704.50;5051380;28;20037;-64
2021/07/11 08:47:15;;;;;;;6.07;2.13;;;20.50;99.90;;;18.43;70.61;97695.44;5032017;28;20030;-64
2021/07/11 08:50:05;;;;;;;5.13;2.15;;;20.50;99.90;;;18.38;68.00;97701.03;5023388;28;20049;-65
2021/07/11 08:52:55;;;;;;;5.05;2.13;;;21.30;99.90;;;20.69;63.21;97702.69;5048446;28;20103;-64
2021/07/11 08:55:43;;;;;;;3.00;1.63;;;21.20;99.90;;;19.65;64.36;97696.78;5050956;28;20076;-65
2021/07/11 08:58:31;;;;;;;3.08;1.35;;;21.40;99.90;;;20.47;64.23;97699.13;5052473;28;20037;-64
2021/07/11 09:01:25;;;;;;;4.00;2.15;;;21.30;99.90;;;18.30;67.14;97704.22;5044457;28;20044;-65
2021/07/11 09:04:13;;;;;;;4.10;2.03;;;21.30;99.90;;;19.46;67.64;97699.19;5049740;28;20496;-64
2021/07/11 09:07:01;;;;;;;4.95;1.70;;;21.10;99.90;;;19.86;65.68;97706.63;5047120;28;20044;-64
2021/07/11 09:10:00;;;;;;;4.97;1.67;;;21.20;99.90;;;19.44;65.37;97706.34;5050609;28;20045;-65
2021/07/11 09:12:53;;;;;;;8.50;1.95;;;21.10;99.90;;;18.32;65.90;97697.06;5030034;28;20072;-64
2021/07/11 09:15:47;;;;;;;2.95;1.73;;;20.70;99.90;;;19.48;62.39;97693.78;5041129;28;20049;-64
2021/07/11 09:18:35;;;;;;;2.03;0.90;;;20.80;99.90;;;21.31;59.24;97691.31;5046137;28;20401;-64
2021/07/11 09:21:22;;;;;;;2.35;1.02;;;21.30;99.90;;;20.79;60.06;97679.84;5046657;28;20033;-64
2021/07/11 09:24:11;;;;;;;1.52;1.00;;;21.20;99.90;;;20.30;60.43;97698.78;5050409;28;20055;-64
2021/07/11 09:27:11;;;;;;;2.65;1.63;;;21.40;99.90;;;18.35;67.45;97702.09;5050154;28;20033;-64
2021/07/11 09:30:03;;;;;;;3.58;1.58;;;20.60;99.90;;;19.06;65.77;97701.38;5050874;28;20045;-64
2021/07/11 09:32:59;;;;;;;4.10;1.30;;;20.10;99.90;;;20.29;65.58;97705.03;5043841;28;20061;-64
2021/07/11 09:35:51;;;;;;;3.72;1.55;;;20.50;99.90;;;22.13;58.49;97694.91;5048385;28;20045;-64
2021/07/11 09:38:48;;;;;;;6.18;1.27;;;21.70;99.90;;;23.60;53.49;97688.66;5049893;28;20477;-64
2021/07/11 09:41:35;;;;;;;2.67;0.98;;;22.90;99.90;;;24.83;51.78;97698.06;5049368;28;20045;-64
2021/07/11 09:44:22;;;;;;;2.00;1.10;;;23.60;99.90;;;22.88;55.07;97698.81;5046415;28;20482;-64
2021/07/11 09:47:22;;;;;;;3.22;1.15;;;23.60;99.90;;;19.81;62.02;97717.53;5046576;28;20040;-64
2021/07/11 09:50:19;;;;;;;2.50;1.10;;;22.90;99.90;;;18.76;64.63;97708.75;5034487;28;20361;-64
2021/07/11 09:53:07;;;;;;;3.58;1.20;;;22.00;99.90;;;19.51;63.58;97699.66;5044775;28;20092;-64
2021/07/11 09:55:54;;;;;;;1.67;0.95;;;21.40;99.90;;;22.41;58.20;97692.50;5047619;28;20405;-65
2021/07/11 09:58:42;;;;;;;1.73;0.98;;;22.20;99.90;;;22.65;52.95;97694.75;5029707;28;20049;-65
2021/07/11 10:01:32;;;;;;;4.28;1.15;;;23.40;99.90;;;20.85;58.90;97700.47;5047730;28;20079;-63
2021/07/11 10:04:20;;;;;;;2.70;0.98;;;23.00;99.90;;;19.79;62.25;97713.34;5050727;28;20039;-65
2021/07/11 10:07:07;;;;;;;1.98;0.90;;;22.10;99.90;;;19.35;63.07;97709.69;5046266;28;20053;-65
2021/07/11 10:09:54;;;;;;;2.15;1.00;;;21.60;99.90;;;18.91;63.58;97703.38;5047819;28;20128;-65
2021/07/11 10:12:43;;;;;;;2.65;1.30;;;21.00;99.90;;;18.60;64.51;97695.91;5047221;28;20068;-65
2021/07/11 10:15:33;;;;;;;4.70;1.05;;;20.80;99.90;;;20.78;58.53;97704.56;5053260;28;20095;-65
2021/07/11 10:18:21;;;;;;;1.67;0.93;;;21.30;99.90;;;21.96;56.15;97691.09;5049493;28;20437;-65
2021/07/11 10:21:10;;;;;;;4.32;0.90;;;22.10;99.90;;;22.27;55.51;97689.28;5043570;28;20044;-65
2021/07/11 10:23:58;;;;;;;3.83;0.80;;;22.80;99.90;;;22.12;53.35;97690.59;5046731;28;20501;-64
2021/07/11 10:26:46;;;;;;;1.83;0.80;;;23.10;99.90;;;22.67;52.39;97691.00;5050611;28;20052;-63
2021/07/11 10:29:45;;;;;;;4.20;0.60;;;23.20;99.90;;;23.14;49.47;97682.38;5048397;28;20122;-64
2021/07/11 10:32:33;;;;;;;2.88;0.82;;;24.30;99.90;;;21.89;54.12;97692.59;5048006;28;20458;-63
2021/07/11 10:35:21;;;;;;;1.35;0.75;;;23.70;99.90;;;20.40;57.19;97681.28;5048586;28;20041;-63
2021/07/11 10:38:08;;;;;;;1.15;0.70;;;22.30;99.90;;;19.92;58.94;97690.34;5048252;28;20048;-64
2021/07/11 10:41:24;;;;;;;1.67;0.70;;;21.60;99.90;;;19.90;58.14;97701.97;5049054;28;20103;-63
2021/07/11 10:44:21;;;;;;;2.72;0.80;;;21.30;99.90;;;21.45;52.96;97687.53;5048541;28;20152;-64
2021/07/11 10:47:08;;;;;;;2.85;0.70;;;22.00;99.90;;;23.43;49.97;97692.06;5045864;28;20558;-64
2021/07/11 10:49:56;;;;;;;2.70;0.70;;;23.30;99.90;;;24.81;47.65;97673.50;5046012;28;20059;-64
2021/07/11 10:52:43;;;;;;;0.93;0.60;;;24.60;99.90;;;25.31;44.18;97675.56;5025525;28;20040;-64
2021/07/11 10:55:40;;;;;;;1.30;0.55;;;25.40;99.90;;;23.34;49.63;97685.81;5051426;28;20505;-64
2021/07/11 10:58:38;;;;;;;0.95;0.50;;;;;;;23.16;50.52;97685.72;5047440;28;20041;-64
2021/07/11 11:01:37;;;;;;;1.38;0.55;;;24.90;99.90;;;23.71;48.59;97680.53;5049402;28;20092;-64
2021/07/11 15:07:40;;;;;;;1.77;0.75;;;;;;;29.81;35.98;97574.88;5021443;28;20043;-65
2021/07/11 15:10:31;;;;;;;1.63;0.70;;;;;;;27.50;40.16;97574.19;5041497;28;20060;-65
2021/07/11 15:13:19;;;;;;;3.17;0.80;;;;;;;28.14;39.64;97574.09;5048010;28;20053;-65
2021/07/11 15:16:06;;;;;;;1.50;0.70;;;;;;;28.16;38.85;97572.03;5048460;28;20083;-65
2021/07/11 15:18:54;;;;;;;2.42;0.80;;;;;;;29.93;36.53;97567.19;5026608;28;20046;-65
2021/07/11 15:21:42;;;;;;;1.42;0.65;;;;;;;30.52;35.11;97558.13;5041688;28;20133;-65
2021/07/11 15:24:30;;;;;;;1.65;0.63;;;;;;;30.80;35.71;97552.78;5040175;28;20075;-65
2021/07/11 15:27:19;;;;;;;1.00;0.60;;;;;;;31.04;34.02;97553.38;5043979;28;20033;-65
2021/07/11 15:30:08;;;;;;;1.25;0.70;;;;;;;29.66;34.56;97552.63;5045924;28;20092;-65
2021/07/11 15:32:55;;;;;;;1.20;0.60;;;;;;;31.19;33.74;97546.06;5046860;28;20083;-65
2021/07/11 15:35:44;;;;;;;1.80;0.60;;;;;;;31.68;33.12;97547.81;5047279;28;20502;-65
2021/07/11 15:38:32;;;;;;;1.17;0.60;;;;;;;32.12;32.71;97544.88;5047410;28;20049;-65
2021/07/11 15:41:20;;;;;;;2.25;0.70;;;;;;;33.14;30.89;97538.28;5045148;28;20045;-65
2021/07/11 15:44:09;;;;;;;1.38;0.60;;;;;;;32.29;33.39;97541.56;5041354;28;20041;-65
2021/07/11 15:46:56;;;;;;;1.08;0.60;;;;;;;31.20;34.84;97537.03;5047250;28;20107;-65
2021/07/11 15:49:44;;;;;;;2.00;0.60;;;;;;;30.22;33.18;97535.97;5046657;28;20132;-65
2021/07/11 15:52:32;;;;;;;1.40;0.80;;;;;;;29.94;34.74;97535.91;5045165;28;20086;-65
2021/07/11 15:55:20;;;;;;;2.03;0.70;;;;;;;29.43;36.51;97526.00;5045854;28;20535;-65